La Coruña, España

4:28 PM CEST en Octubre 02, 2014 (GMT +0200)
Playa de Riazor | Change Station
CLOSE
Current Station
Estación meteorológica personal
Location: RIAZOR, METEOCORUA
Altura: 30 ft
Estaciones meteorológicas cercanas

Alt 30 ft 43.37 °N, 8.41 °W | Updated 1 minute ago

Clear
Despejado
74.4 ° F
Sensación térmica 77 ° F
N
1.7
Viento Variable Viento desde SO
Gusts 2.7 mph

Hoy
Alta -- | Baja -- ° F
--% Posibilidad de precipitaciones
Ayer
Alta -- | Baja -- ° F
Precip. -- pul
8:32 AM 8:13 PM
Cuarto creciente, 59% visible
Presión 30.21 pul
Visibilidad -9999.0 Millas
Nubes
Índice de calor 77 ° F
Punto de rocío 60 ° F
Humedad 62%
Precipitaciones 0.00 pul
Espesor de la nieve No disponible.
UV No disponible.
Polen No disponible.
Calidad del aire No disponible.
Flu Activity No disponible.
METAR LECO 021400Z 35005KT 270V050 CAVOK 26/17 Q1023 NOSIG

More Conditions Fewer Conditions

Presión 30.21 pul
Visibilidad -9999.0 Millas
Nubes
Índice de calor 77 ° F
Punto de rocío 60 ° F
Humedad 62%
Precipitaciones 0.00 pul
Espesor de la nieve No disponible.
UV No disponible.
Polen No disponible.
Calidad del aire No disponible.
Flu Activity No disponible.
METAR LECO 021400Z 35005KT 270V050 CAVOK 26/17 Q1023 NOSIG

More Conditions Fewer Conditions

10-Day Weather Forecast

Almanac

Astronomía

Oct. 02, 2014 Salida Puesta
Hora real 8:32 AM CEST 8:13 PM CEST
Crepúsculo civil 8:03 AM CEST 8:41 PM CEST
Crepúsculo náutico 7:30 AM CEST 9:14 PM CEST
Crepúsculo astronómico 6:56 AM CEST 9:48 PM CEST
Luna 4:17 PM CEST 1:25 AM CEST
Horas de luz 12h 38m
Horas de luz
11h 41m
Tomorrow will be 2m 56s shorter.
Cuarto creciente, 59% of the Moon is Illuminated
Hoy
Cuarto creciente
Oct 8
Luna llena
Oct 15
Cuarto menguante
Oct 23
Nueva
Oct 30
Cuarto creciente

Extremos de hoy

Máximos del país Bajas del país

Community

WunderPhotos

Upload Photos

1,758,250 ¡fotos cargadas!

WunderBlogs® & News

By Dr. Jeff Masters
Director of Meteorology, Weather Underground
By Kari Strenfel
Meteorologist, Weather Underground
By Christopher C. Burt
Weather Historian, Weather Underground
October 2, 2014
October 2, 2014
October 2, 2014

Nearby

Calidad del aire

Not available.

Grosos de nieve

Not available.

Actividad de terremotos

Ciudad Distance Mag. Tiempo y dato
No hay informes recientes de la actividad sísmica.
Magnitud mínima muestra es 2,5.

Temperaturas de aguas costeras

Lugar Temperatura
Sin partes meteorológicos de las estaciones

Estaciones meteorológicas cercanas